CheckWX is a tool to help pilots better visualize weather data.  It is not intended as a substitute for an official pre-flight weather briefing.

04:43:58 UTC

KRFD TAF
Chicago / Rockford International Airport
Chicago/Rockford, Illinois, USA
KRFD 230238Z 2303/2324 09005KT P6SM SKC FM230400 VRB03KT P6SM SKC FM231300 17004KT P6SM FEW250 FM231600 19008KT P6SM SCT250

Mar-23@
03:00 UTC

Mar-23 @ 03:00 UTC

Mar-23@
04:00 UTC

Mar-23 @ 04:00 UTC

KRFD 230238Z 2303/2324 09005KT P6SM SKC

Expired

Wind
  • 090° at 5 KTS
Cloud Levels
  • Clear skies

Mar-23@
04:00 UTC

Mar-23 @ 04:00 UTC

Mar-23@
13:00 UTC

Mar-23 @ 13:00 UTC

FM230400 VRB03KT P6SM SKC

From

From Standard forecast or significant change

Wind
  • Variable at 3 KTS
Cloud Levels
  • Clear skies

Mar-23@
13:00 UTC

Mar-23 @ 13:00 UTC

Mar-23@
16:00 UTC

Mar-23 @ 16:00 UTC

FM231300 17004KT P6SM FEW250

From

From Standard forecast or significant change

Wind
  • 170° at 4 KTS
Cloud Levels
  • Few at 25,000' AGL

Mar-23@
16:00 UTC

Mar-23 @ 16:00 UTC

Mar-24@
00:00 UTC

Mar-24 @ 00:00 UTC

FM231600 19008KT P6SM SCT250

From

From Standard forecast or significant change

Wind
  • 190° at 8 KTS
Cloud Levels
  • Scattered at 25,000' AGL